Time;durP1;ratioP1;P1;durP2;ratioP2;P2;SDS_P1;SDS_P2;PMS_P1;PMS_P2;Temp;Humidity;BMP_temperature;BMP_pressure;BME280_temperature;BME280_humidity;BME280_pressure;Samples;Min_cycle;Max_cycle;Signal;HPM_P1;HPM_P2
2021/12/20 00:01:57;;;;;;;19.10;9.20;;;7.50;89.20;;;;;;5071797;28;20398;-72
2021/12/20 00:04:22;;;;;;;23.02;10.13;;;7.50;88.50;;;;;;5052940;28;20461;-73
2021/12/20 00:06:48;;;;;;;22.60;10.30;;;7.50;87.90;;;;;;5071356;28;20396;-72
2021/12/20 00:09:14;;;;;;;21.53;9.40;;;7.60;86.20;;;;;;5071851;28;20467;-72
2021/12/20 00:11:40;;;;;;;25.27;10.95;;;7.60;86.70;;;;;;5068894;28;20412;-72
2021/12/20 00:14:06;;;;;;;26.27;12.53;;;7.50;84.30;;;;;;5052198;28;20504;-73
2021/12/20 00:16:31;;;;;;;21.13;11.10;;;7.60;85.30;;;;;;5065920;28;20439;-72
2021/12/20 00:18:57;;;;;;;25.88;10.25;;;7.60;84.10;;;;;;5092747;28;20897;-72
2021/12/20 00:21:22;;;;;;;26.75;11.07;;;7.60;83.70;;;;;;5091846;28;20386;-73
2021/12/20 00:23:48;;;;;;;32.17;11.10;;;7.60;84.00;;;;;;5090632;28;20385;-73
2021/12/20 00:26:13;;;;;;;24.17;9.60;;;7.60;83.90;;;;;;5063005;28;20477;-72
2021/12/20 00:28:39;;;;;;;22.13;10.00;;;7.60;82.70;;;;;;5052545;28;20424;-72
2021/12/20 00:31:06;;;;;;;24.63;10.60;;;7.60;84.00;;;;;;5068594;28;20439;-72
2021/12/20 00:33:35;;;;;;;23.93;11.00;;;7.60;82.60;;;;;;5071902;28;20435;-73
2021/12/20 00:36:06;;;;;;;23.40;11.20;;;7.70;80.30;;;;;;5070732;28;20406;-72
2021/12/20 00:41:18;;;;;;;31.23;11.45;;;7.60;80.10;;;;;;5072939;28;20403;-73
2021/12/20 00:43:43;;;;;;;19.43;9.37;;;7.50;80.90;;;;;;5074519;28;20383;-73
2021/12/20 00:46:09;;;;;;;25.70;10.70;;;7.60;80.80;;;;;;5073115;28;20399;-73
2021/12/20 00:48:34;;;;;;;28.98;10.60;;;7.50;80.70;;;;;;5070864;28;20864;-73
2021/12/20 00:51:00;;;;;;;29.10;10.55;;;7.60;80.60;;;;;;5052402;28;20397;-72
2021/12/20 00:53:26;;;;;;;28.77;9.90;;;7.50;81.10;;;;;;5050999;28;20385;-72
2021/12/20 00:55:51;;;;;;;28.93;11.37;;;7.40;80.90;;;;;;5051253;28;20773;-72
2021/12/20 00:58:17;;;;;;;27.53;10.57;;;7.40;82.30;;;;;;5052029;28;20393;-73
2021/12/20 01:00:46;;;;;;;25.87;10.77;;;7.40;82.10;;;;;;5053469;28;20488;-73
2021/12/20 01:03:13;;;;;;;22.23;10.43;;;7.50;80.60;;;;;;5072791;28;20425;-73
2021/12/20 01:05:39;;;;;;;27.13;9.57;;;7.50;80.70;;;;;;5066264;28;20391;-73
2021/12/20 01:08:06;;;;;;;23.80;8.77;;;7.50;78.60;;;;;;5052631;28;20424;-72
2021/12/20 01:10:34;;;;;;;17.80;8.18;;;7.50;78.60;;;;;;5051898;28;20381;-72
2021/12/20 01:13:01;;;;;;;25.80;8.80;;;7.50;79.40;;;;;;5065242;28;20383;-73
2021/12/20 01:15:33;;;;;;;24.10;8.50;;;7.60;76.80;;;;;;5065096;28;20405;-73
2021/12/20 01:17:59;;;;;;;27.15;8.95;;;7.60;77.70;;;;;;5081930;28;20434;-74
2021/12/20 01:20:25;;;;;;;19.90;7.38;;;7.60;75.40;;;;;;5091228;28;20370;-74
2021/12/20 01:22:51;;;;;;;22.08;7.97;;;7.60;74.40;;;;;;5091187;28;20721;-73
2021/12/20 01:25:18;;;;;;;20.63;7.38;;;7.70;75.60;;;;;;5070138;28;20406;-73
2021/12/20 01:27:44;;;;;;;21.35;8.70;;;7.60;76.20;;;;;;5051940;28;20932;-73
2021/12/20 01:30:12;;;;;;;20.75;7.22;;;7.60;77.40;;;;;;5050821;28;20393;-71
2021/12/20 01:32:39;;;;;;;15.95;6.35;;;7.70;75.60;;;;;;5057944;28;20441;-72
2021/12/20 01:35:06;;;;;;;18.27;7.18;;;7.60;75.40;;;;;;5070653;28;20725;-72
2021/12/20 01:37:32;;;;;;;19.63;6.07;;;7.70;74.50;;;;;;5070384;28;20466;-72
2021/12/20 01:39:59;;;;;;;20.90;7.07;;;7.70;73.70;;;;;;5055530;28;20485;-72
2021/12/20 01:42:25;;;;;;;21.20;6.50;;;7.70;73.70;;;;;;5051461;28;20393;-72
2021/12/20 01:44:55;;;;;;;16.10;6.65;;;7.60;75.60;;;;;;5060050;28;20756;-72
2021/12/20 01:47:31;;;;;;;23.50;5.50;;;7.60;75.00;;;;;;5070982;28;20384;-72
2021/12/20 01:50:09;;;;;;;18.83;5.07;;;7.60;72.70;;;;;;5070998;28;20383;-73
2021/12/20 01:52:41;;;;;;;15.55;4.85;;;7.70;71.30;;;;;;5068296;28;20426;-73
2021/12/20 01:55:08;;;;;;;16.80;5.45;;;7.70;71.60;;;;;;5070687;28;20449;-73
2021/12/20 01:57:34;;;;;;;18.55;5.00;;;7.70;70.70;;;;;;5070663;28;20380;-73
2021/12/20 02:00:00;;;;;;;24.75;5.45;;;7.70;71.10;;;;;;5070719;28;20489;-73
2021/12/20 02:02:25;;;;;;;17.02;5.20;;;7.70;69.90;;;;;;5070410;28;20500;-73
2021/12/20 02:04:52;;;;;;;16.02;4.38;;;7.60;69.80;;;;;;5071010;28;20383;-72
2021/12/20 02:07:50;;;;;;;21.40;4.38;;;7.60;68.40;;;;;;5060631;28;20390;-73
2021/12/20 02:10:16;;;;;;;18.10;5.28;;;7.60;68.60;;;;;;5050223;28;20389;-73
2021/12/20 02:12:41;;;;;;;14.30;4.18;;;7.60;69.20;;;;;;5061353;28;20494;-73
2021/12/20 02:15:07;;;;;;;18.20;5.27;;;7.50;69.30;;;;;;5069740;28;20450;-74
2021/12/20 02:17:33;;;;;;;16.58;4.60;;;7.60;68.20;;;;;;5082181;28;20382;-73
2021/12/20 02:20:00;;;;;;;16.70;4.60;;;7.60;67.10;;;;;;5090489;28;20523;-73
2021/12/20 02:22:26;;;;;;;12.70;5.00;;;7.50;68.20;;;;;;5057292;28;20397;-71
2021/12/20 02:24:52;;;;;;;16.30;4.90;;;7.50;68.50;;;;;;5050805;28;20392;-72
2021/12/20 02:27:20;;;;;;;21.30;4.10;;;7.60;68.80;;;;;;5051017;28;20771;-72
2021/12/20 02:30:09;;;;;;;19.40;4.70;;;7.50;69.50;;;;;;5050915;28;20419;-73
2021/12/20 02:38:18;;;;;;;18.02;4.80;;;7.60;68.20;;;;;;5052491;28;20443;-72
2021/12/20 02:40:45;;;;;;;20.50;5.05;;;7.60;68.70;;;;;;5071474;28;20396;-73
2021/12/20 02:43:14;;;;;;;19.27;4.85;;;7.70;67.50;;;;;;5088499;28;20383;-73
2021/12/20 02:45:40;;;;;;;28.05;5.72;;;7.70;67.40;;;;;;5088710;28;20376;-71
2021/12/20 02:48:07;;;;;;;17.58;5.35;;;7.60;66.80;;;;;;5073390;28;20395;-72
2021/12/20 02:50:33;;;;;;;21.60;5.00;;;7.60;67.80;;;;;;5055157;28;20494;-72
2021/12/20 02:52:58;;;;;;;21.10;5.30;;;7.50;68.80;;;;;;5068127;28;20405;-72
2021/12/20 02:55:24;;;;;;;23.30;5.32;;;7.50;69.00;;;;;;5052770;28;20484;-72
2021/12/20 02:57:49;;;;;;;18.27;4.70;;;7.50;69.80;;;;;;5051842;28;20445;-72
2021/12/20 03:00:15;;;;;;;17.60;4.82;;;7.40;68.60;;;;;;5052788;28;20428;-72
2021/12/20 03:02:42;;;;;;;19.10;5.35;;;7.50;68.40;;;;;;5056257;28;20400;-72
2021/12/20 03:05:08;;;;;;;20.23;5.22;;;7.50;66.40;;;;;;5072731;28;20605;-72
2021/12/20 03:07:43;;;;;;;23.23;5.55;;;7.50;67.00;;;;;;5069807;28;20389;-72
2021/12/20 03:10:12;;;;;;;15.80;5.50;;;7.50;67.70;;;;;;5053118;28;20877;-72
2021/12/20 03:12:38;;;;;;;14.43;4.63;;;7.50;68.50;;;;;;5063503;28;20403;-72
2021/12/20 03:15:11;;;;;;;19.67;5.00;;;7.60;63.70;;;;;;5072885;28;20884;-72
2021/12/20 03:17:37;;;;;;;18.45;4.90;;;7.60;60.90;;;;;;5073045;28;20757;-72
2021/12/20 03:20:03;;;;;;;25.25;5.70;;;7.60;59.50;;;;;;5073228;28;20376;-73
2021/12/20 03:22:29;;;;;;;23.25;4.90;;;7.60;59.30;;;;;;5065741;28;20468;-71
2021/12/20 03:24:55;;;;;;;19.47;5.50;;;7.60;59.00;;;;;;5054853;28;20428;-72
2021/12/20 03:27:20;;;;;;;19.97;4.80;;;7.60;59.50;;;;;;5054066;28;20472;-73
2021/12/20 03:29:46;;;;;;;22.60;5.97;;;7.60;58.90;;;;;;5052709;28;20892;-71
2021/12/20 03:32:12;;;;;;;24.25;4.93;;;7.50;59.10;;;;;;5070576;28;20521;-71
2021/12/20 03:34:37;;;;;;;22.02;4.43;;;7.40;57.70;;;;;;5093121;28;20404;-73
2021/12/20 03:37:03;;;;;;;26.50;4.37;;;7.20;59.20;;;;;;5082172;28;20523;-74
2021/12/20 03:39:29;;;;;;;21.70;4.93;;;7.30;57.80;;;;;;5052663;28;20805;-72
2021/12/20 03:41:54;;;;;;;22.52;4.32;;;7.40;56.20;;;;;;5052352;28;20385;-72
2021/12/20 03:44:20;;;;;;;21.85;4.63;;;7.40;55.20;;;;;;5056424;28;20380;-72
2021/12/20 03:46:46;;;;;;;23.58;4.95;;;7.40;52.20;;;;;;5071501;28;20396;-72
2021/12/20 03:49:11;;;;;;;23.10;4.60;;;7.40;53.30;;;;;;5064970;28;20898;-73
2021/12/20 03:51:37;;;;;;;23.43;4.40;;;7.30;55.50;;;;;;5053042;28;20474;-73
2021/12/20 03:54:04;;;;;;;20.73;3.95;;;7.50;51.20;;;;;;5052001;28;20382;-73
2021/12/20 03:56:30;;;;;;;17.55;3.63;;;7.50;50.60;;;;;;5055914;28;20411;-73
2021/12/20 03:58:55;;;;;;;19.88;4.90;;;7.50;43.50;;;;;;5072208;28;20384;-74
2021/12/20 04:01:21;;;;;;;15.63;3.80;;;7.60;41.70;;;;;;5072053;28;20390;-76
2021/12/20 04:03:49;;;;;;;25.23;4.70;;;7.70;38.60;;;;;;5072263;28;20607;-75
2021/12/20 04:06:14;;;;;;;15.80;4.17;;;7.50;40.50;;;;;;5071303;28;20414;-74
2021/12/20 04:08:41;;;;;;;15.90;4.35;;;7.60;41.90;;;;;;5072401;28;20387;-75
2021/12/20 04:11:07;;;;;;;23.52;5.28;;;7.60;42.30;;;;;;5063261;28;20493;-75
2021/12/20 04:13:33;;;;;;;20.73;4.60;;;7.60;41.20;;;;;;5071154;28;20384;-75
2021/12/20 04:16:00;;;;;;;34.30;4.97;;;7.70;41.20;;;;;;5075958;28;20375;-75
2021/12/20 04:18:27;;;;;;;19.60;4.50;;;7.60;40.10;;;;;;5095565;28;20397;-75
2021/12/20 04:20:52;;;;;;;25.77;5.20;;;7.70;40.70;;;;;;5089797;28;20749;-75
2021/12/20 04:23:19;;;;;;;23.27;4.83;;;7.60;40.30;;;;;;5055329;28;20511;-75
2021/12/20 04:25:45;;;;;;;20.33;4.35;;;7.60;41.10;;;;;;5052358;28;20740;-75
2021/12/20 04:28:10;;;;;;;15.00;3.42;;;7.60;41.40;;;;;;5054621;28;20385;-75
2021/12/20 04:30:36;;;;;;;24.13;4.47;;;7.70;39.40;;;;;;5051888;28;20400;-74
2021/12/20 04:33:02;;;;;;;19.65;4.00;;;7.70;41.00;;;;;;5058792;28;20413;-74
2021/12/20 04:35:28;;;;;;;34.40;5.57;;;7.60;41.90;;;;;;5051467;28;21135;-75
2021/12/20 04:37:54;;;;;;;22.00;5.70;;;7.40;42.30;;;;;;5051616;28;20780;-74
2021/12/20 04:40:22;;;;;;;19.67;5.27;;;7.20;44.30;;;;;;5051801;28;20944;-75
2021/12/20 04:42:50;;;;;;;18.30;5.38;;;7.00;48.30;;;;;;5070062;28;20430;-74
2021/12/20 04:45:17;;;;;;;20.23;4.60;;;6.80;52.10;;;;;;5067941;28;20975;-74
2021/12/20 04:47:43;;;;;;;32.03;5.97;;;6.70;54.00;;;;;;5071523;28;20831;-75
2021/12/20 04:50:09;;;;;;;30.42;5.20;;;6.70;56.10;;;;;;5070565;28;20483;-75
2021/12/20 04:52:36;;;;;;;25.80;5.43;;;6.70;57.20;;;;;;5062904;28;20764;-74
2021/12/20 04:55:01;;;;;;;26.95;4.60;;;7.00;53.10;;;;;;5055159;28;20407;-74
2021/12/20 04:57:27;;;;;;;23.85;5.13;;;7.20;50.00;;;;;;5071216;28;20391;-74
2021/12/20 04:59:53;;;;;;;25.97;5.40;;;7.20;51.10;;;;;;5054127;28;20904;-74
2021/12/20 05:02:18;;;;;;;15.70;4.00;;;7.40;48.30;;;;;;5050983;28;20401;-74
2021/12/20 05:04:44;;;;;;;25.63;6.10;;;7.60;44.20;;;;;;5051745;28;20389;-74
2021/12/20 05:07:09;;;;;;;19.80;4.70;;;7.60;43.50;;;;;;5053403;28;20454;-75
2021/12/20 05:09:39;;;;;;;22.87;4.70;;;7.40;45.70;;;;;;5054533;28;20751;-75
2021/12/20 05:12:11;;;;;;;24.10;4.70;;;7.50;44.60;;;;;;5060122;28;20779;-74
2021/12/20 05:14:40;;;;;;;16.40;4.30;;;7.70;43.40;;;;;;5051944;28;20894;-73
2021/12/20 05:17:06;;;;;;;26.25;4.47;;;7.70;42.80;;;;;;5067096;28;20874;-74
2021/12/20 05:19:33;;;;;;;15.68;4.35;;;7.80;42.10;;;;;;5092575;28;20731;-74
2021/12/20 05:21:58;;;;;;;26.98;4.38;;;7.70;43.20;;;;;;5092408;28;20473;-72
2021/12/20 05:24:24;;;;;;;21.63;4.47;;;7.80;42.70;;;;;;5078474;28;20983;-76
2021/12/20 05:26:49;;;;;;;26.23;5.07;;;7.70;42.20;;;;;;5075134;28;20413;-76
2021/12/20 05:29:15;;;;;;;31.17;6.30;;;7.80;40.70;;;;;;5079556;28;20428;-74
2021/12/20 05:31:41;;;;;;;18.13;4.40;;;7.80;41.20;;;;;;5073431;28;20404;-74
2021/12/20 05:34:06;;;;;;;23.27;4.40;;;7.70;42.60;;;;;;5091366;28;20378;-74
2021/12/20 05:36:32;;;;;;;20.43;4.37;;;7.80;42.30;;;;;;5090587;28;20875;-74
2021/12/20 05:38:58;;;;;;;24.83;4.90;;;7.70;42.30;;;;;;5078772;28;20401;-74
2021/12/20 05:41:23;;;;;;;23.43;5.13;;;7.70;43.10;;;;;;5050791;28;20861;-75
2021/12/20 05:43:49;;;;;;;20.23;5.23;;;7.80;42.70;;;;;;5052304;28;20427;-73
2021/12/20 05:46:15;;;;;;;18.70;4.50;;;7.70;42.80;;;;;;5050676;28;20393;-74
2021/12/20 05:48:41;;;;;;;26.55;4.60;;;7.60;44.20;;;;;;5053439;28;20399;-74
2021/12/20 05:51:06;;;;;;;24.15;3.78;;;7.50;45.20;;;;;;5070730;28;20414;-74
2021/12/20 05:53:32;;;;;;;21.85;4.60;;;7.60;45.00;;;;;;5069113;28;20418;-74
2021/12/20 05:55:58;;;;;;;22.40;4.63;;;7.60;44.60;;;;;;5071472;28;20384;-75
2021/12/20 05:58:23;;;;;;;25.70;4.20;;;7.70;44.60;;;;;;5065721;28;20398;-74
2021/12/20 06:00:49;;;;;;;22.77;4.93;;;7.60;46.20;;;;;;5050917;28;20878;-75
2021/12/20 06:03:14;;;;;;;23.57;4.80;;;7.60;45.00;;;;;;5050452;28;20384;-75
2021/12/20 06:05:42;;;;;;;28.97;4.97;;;7.60;46.30;;;;;;5050309;28;20413;-74
2021/12/20 06:08:08;;;;;;;24.58;5.50;;;7.60;46.00;;;;;;5080326;28;20396;-74
2021/12/20 06:10:35;;;;;;;23.20;5.30;;;7.60;46.20;;;;;;5053137;28;20894;-76
2021/12/20 06:13:02;;;;;;;26.70;5.20;;;7.50;47.10;;;;;;5060830;28;20502;-74
2021/12/20 06:15:27;;;;;;;30.17;5.22;;;7.20;50.60;;;;;;5073063;28;20737;-74
2021/12/20 06:17:53;;;;;;;25.75;5.90;;;7.00;54.00;;;;;;5086931;28;20382;-74
2021/12/20 06:20:19;;;;;;;26.55;5.60;;;7.10;55.50;;;;;;5093524;28;20746;-74
2021/12/20 06:22:45;;;;;;;30.00;5.03;;;7.10;54.30;;;;;;5081237;28;20522;-75
2021/12/20 06:25:11;;;;;;;23.30;4.82;;;7.30;53.10;;;;;;5052628;28;20450;-74
2021/12/20 06:27:37;;;;;;;21.73;5.35;;;7.50;50.80;;;;;;5069607;28;20474;-76
2021/12/20 06:30:04;;;;;;;21.23;4.93;;;7.50;49.60;;;;;;5074681;28;20380;-75
2021/12/20 06:32:29;;;;;;;22.27;5.32;;;7.50;50.80;;;;;;5074099;28;20498;-75
2021/12/20 06:34:55;;;;;;;29.50;5.70;;;7.10;53.30;;;;;;5074437;28;20907;-74
2021/12/20 06:37:21;;;;;;;23.02;5.70;;;7.10;54.90;;;;;;5073413;28;20795;-75
2021/12/20 06:39:47;;;;;;;24.63;6.65;;;7.10;55.60;;;;;;5074687;28;20740;-75
2021/12/20 06:42:13;;;;;;;21.70;5.40;;;6.90;56.30;;;;;;5052821;28;20389;-75
2021/12/20 06:44:38;;;;;;;28.90;6.00;;;7.00;56.60;;;;;;5061185;28;20391;-75
2021/12/20 06:47:04;;;;;;;27.03;5.80;;;7.20;53.00;;;;;;5068007;28;20391;-76
2021/12/20 06:49:30;;;;;;;32.60;6.25;;;7.10;52.60;;;;;;5063473;28;20399;-75
2021/12/20 06:51:59;;;;;;;27.17;5.70;;;7.00;54.70;;;;;;5073957;28;20403;-76
2021/12/20 06:54:25;;;;;;;29.90;6.17;;;6.90;56.40;;;;;;5068240;28;20399;-75
2021/12/20 06:56:50;;;;;;;24.33;5.43;;;6.60;57.80;;;;;;5069286;28;20388;-75
2021/12/20 06:59:16;;;;;;;19.25;5.53;;;6.40;61.40;;;;;;5074492;28;20379;-75
2021/12/20 07:01:41;;;;;;;25.63;5.38;;;6.30;63.60;;;;;;5061449;28;20393;-74
2021/12/20 07:04:07;;;;;;;29.27;6.45;;;6.40;64.60;;;;;;5071185;28;20698;-74
2021/12/20 07:06:33;;;;;;;26.20;5.97;;;6.40;64.00;;;;;;5065111;28;20432;-75
2021/12/20 07:08:59;;;;;;;33.37;6.93;;;6.30;64.40;;;;;;5071033;28;20402;-74
2021/12/20 07:11:25;;;;;;;32.00;6.32;;;6.30;65.00;;;;;;5055025;28;20924;-75
2021/12/20 07:13:53;;;;;;;25.50;5.70;;;6.30;65.10;;;;;;5054464;28;20758;-74
2021/12/20 07:16:19;;;;;;;33.28;6.05;;;6.20;65.60;;;;;;5055002;28;20483;-74
2021/12/20 07:18:45;;;;;;;25.70;5.73;;;6.20;66.60;;;;;;5094181;28;20421;-75
2021/12/20 07:21:11;;;;;;;27.57;6.87;;;6.10;67.30;;;;;;5072955;28;20422;-75
2021/12/20 07:23:36;;;;;;;26.98;5.70;;;5.90;70.20;;;;;;5067060;28;20421;-75
2021/12/20 07:26:04;;;;;;;32.63;6.30;;;5.80;72.00;;;;;;5072526;28;20508;-76
2021/12/20 07:28:30;;;;;;;25.57;6.23;;;5.80;69.90;;;;;;5073874;28;20448;-76
2021/12/20 07:30:55;;;;;;;25.33;5.40;;;5.60;71.80;;;;;;5072054;28;20396;-74
2021/12/20 07:33:21;;;;;;;25.08;6.40;;;5.50;76.00;;;;;;5069327;28;20430;-75
2021/12/20 07:35:48;;;;;;;27.98;6.90;;;5.50;77.40;;;;;;5093221;28;20395;-75
2021/12/20 07:38:15;;;;;;;24.80;6.20;;;5.60;74.00;;;;;;5076524;28;20383;-74
2021/12/20 07:40:45;;;;;;;26.10;6.00;;;5.50;74.30;;;;;;5074384;28;20464;-75
2021/12/20 07:43:14;;;;;;;29.23;5.78;;;5.40;76.70;;;;;;5069587;28;20472;-75
2021/12/20 07:45:40;;;;;;;30.20;7.23;;;5.20;77.80;;;;;;5068873;28;20395;-74
2021/12/20 07:48:06;;;;;;;33.20;7.00;;;5.00;79.50;;;;;;5052722;28;20408;-74
2021/12/20 07:50:32;;;;;;;25.37;7.40;;;5.00;80.50;;;;;;5069143;28;20482;-74
2021/12/20 07:52:58;;;;;;;38.45;8.02;;;5.10;81.30;;;;;;5066731;28;20431;-74
2021/12/20 07:55:23;;;;;;;33.00;8.00;;;5.30;76.50;;;;;;5067184;28;20777;-75
2021/12/20 07:57:50;;;;;;;36.42;8.38;;;5.40;74.20;;;;;;5065435;28;20408;-74
2021/12/20 08:00:16;;;;;;;39.47;8.30;;;5.50;71.30;;;;;;5067612;28;20726;-73
2021/12/20 08:02:42;;;;;;;32.80;7.80;;;5.50;70.90;;;;;;5070861;28;20403;-75
2021/12/20 08:05:08;;;;;;;38.97;9.10;;;5.40;71.40;;;;;;5076582;28;20403;-75
2021/12/20 08:07:34;;;;;;;40.55;9.02;;;5.20;75.70;;;;;;5074250;28;20431;-73
2021/12/20 08:09:59;;;;;;;31.63;8.30;;;5.40;74.60;;;;;;5085866;28;20403;-75
2021/12/20 08:12:25;;;;;;;31.33;8.45;;;5.50;71.00;;;;;;5075800;28;20507;-74
2021/12/20 08:14:51;;;;;;;34.83;9.07;;;5.60;69.40;;;;;;5061707;28;20391;-74
2021/12/20 08:17:16;;;;;;;36.58;8.95;;;5.60;67.80;;;;;;5067665;28;20407;-73
2021/12/20 08:19:42;;;;;;;31.13;8.25;;;5.60;68.30;;;;;;5070092;28;20399;-74
2021/12/20 08:22:07;;;;;;;31.13;9.60;;;5.60;68.50;;;;;;5067007;28;20424;-74
2021/12/20 08:24:33;;;;;;;34.23;9.10;;;5.70;67.90;;;;;;5066285;28;20399;-74
2021/12/20 08:26:59;;;;;;;41.47;8.50;;;5.60;68.40;;;;;;5066700;28;20410;-75
2021/12/20 08:29:26;;;;;;;30.60;8.27;;;5.60;69.60;;;;;;5072537;28;20391;-74
2021/12/20 08:31:51;;;;;;;33.30;7.95;;;5.60;69.20;;;;;;5071279;28;20407;-74
2021/12/20 08:34:17;;;;;;;50.60;9.10;;;5.60;68.60;;;;;;5056292;28;20401;-73
2021/12/20 08:36:43;;;;;;;46.08;8.85;;;5.70;66.90;;;;;;5053564;28;20389;-76
2021/12/20 08:39:08;;;;;;;35.10;8.52;;;5.60;67.00;;;;;;5066908;28;20402;-75
2021/12/20 08:41:34;;;;;;;36.00;9.20;;;5.60;67.50;;;;;;5055570;28;20432;-75
2021/12/20 08:44:00;;;;;;;38.73;9.30;;;5.60;67.80;;;;;;5072964;28;20398;-73
2021/12/20 08:46:26;;;;;;;40.50;9.10;;;5.70;67.10;;;;;;5073032;28;20503;-76
2021/12/20 08:48:52;;;;;;;41.40;9.52;;;5.70;66.80;;;;;;5076480;28;20757;-75
2021/12/20 08:51:18;;;;;;;33.90;8.15;;;5.80;66.00;;;;;;5062936;28;20409;-74
2021/12/20 08:53:43;;;;;;;39.28;9.27;;;5.80;64.60;;;;;;5066898;28;20392;-74
2021/12/20 08:56:09;;;;;;;42.13;9.30;;;5.80;65.60;;;;;;5068340;28;20404;-73
2021/12/20 08:58:35;;;;;;;42.20;9.50;;;5.80;63.90;;;;;;5060192;28;20443;-74
2021/12/20 09:01:01;;;;;;;39.22;8.52;;;5.90;63.50;;;;;;5064268;28;20453;-76
2021/12/20 09:03:28;;;;;;;30.05;8.55;;;6.20;63.20;;;;;;5065576;28;20409;-73
2021/12/20 09:05:54;;;;;;;31.63;8.57;;;6.90;55.90;;;;;;5063509;28;20529;-73
2021/12/20 09:08:21;;;;;;;37.47;9.48;;;7.30;51.90;;;;;;5068935;28;20427;-72
2021/12/20 09:10:48;;;;;;;36.78;8.23;;;7.40;50.40;;;;;;5067218;28;20480;-75
2021/12/20 09:13:14;;;;;;;37.75;9.30;;;7.20;50.30;;;;;;5072483;28;20411;-74
2021/12/20 09:15:40;;;;;;;49.88;9.27;;;6.80;51.60;;;;;;5069356;28;20385;-74
2021/12/20 09:18:08;;;;;;;31.52;8.75;;;6.60;54.00;;;;;;5054953;28;20742;-73
2021/12/20 09:20:34;;;;;;;46.25;9.77;;;6.40;57.00;;;;;;5064844;28;20402;-73
2021/12/20 09:23:07;;;;;;;43.00;10.30;;;6.40;57.20;;;;;;5068656;28;20479;-74
2021/12/20 09:25:36;;;;;;;38.38;10.45;;;6.30;57.70;;;;;;5051923;28;20446;-75
2021/12/20 09:28:04;;;;;;;42.65;10.65;;;6.40;58.30;;;;;;5051420;28;20451;-74
2021/12/20 09:30:31;;;;;;;49.13;10.90;;;6.40;57.70;;;;;;5051861;28;20397;-74
2021/12/20 09:32:57;;;;;;;40.03;9.50;;;6.40;57.80;;;;;;5062123;28;20670;-73
2021/12/20 09:35:23;;;;;;;41.33;10.60;;;6.40;57.50;;;;;;5064726;28;20470;-74
2021/12/20 09:37:51;;;;;;;43.88;11.10;;;6.30;58.00;;;;;;5070900;28;20392;-73
2021/12/20 09:40:20;;;;;;;42.47;10.52;;;6.20;60.20;;;;;;5053123;28;20476;-74
2021/12/20 09:42:53;;;;;;;46.88;10.68;;;6.30;63.00;;;;;;5060554;28;20782;-73
2021/12/20 09:45:23;;;;;;;43.15;10.68;;;6.50;60.90;;;;;;5070489;28;20487;-74
2021/12/20 09:47:50;;;;;;;37.00;9.07;;;6.60;57.90;;;;;;5061548;28;20555;-73
2021/12/20 09:50:16;;;;;;;38.93;9.53;;;6.70;56.30;;;;;;5055236;28;20388;-73
2021/12/20 09:52:43;;;;;;;53.50;11.13;;;6.70;55.70;;;;;;5055049;28;20419;-72
2021/12/20 09:55:10;;;;;;;38.50;9.25;;;6.50;55.50;;;;;;5055484;28;20783;-74
2021/12/20 09:57:37;;;;;;;45.95;9.98;;;6.50;57.10;;;;;;5066091;28;20766;-74
2021/12/20 10:00:07;;;;;;;37.60;9.60;;;6.50;57.10;;;;;;5058265;28;20381;-74
2021/12/20 10:02:32;;;;;;;31.00;9.20;;;6.70;55.40;;;;;;5059584;28;20393;-74
2021/12/20 10:04:58;;;;;;;37.57;9.00;;;6.80;54.20;;;;;;5058742;28;20881;-73
2021/12/20 10:07:25;;;;;;;38.40;8.43;;;6.80;54.50;;;;;;5058413;28;20428;-75
2021/12/20 10:09:52;;;;;;;40.60;10.00;;;6.70;55.50;;;;;;5071383;28;20388;-74
2021/12/20 10:12:26;;;;;;;35.45;8.88;;;6.70;55.20;;;;;;5065603;28;20420;-73
2021/12/20 10:15:03;;;;;;;37.60;9.20;;;6.70;55.20;;;;;;5054907;28;20947;-75
2021/12/20 10:17:52;;;;;;;35.60;9.05;;;6.60;52.10;;;;;;5076556;28;20377;-72
2021/12/20 10:20:20;;;;;;;37.70;8.25;;;6.60;53.50;;;;;;5055372;28;20426;-73
2021/12/20 10:22:46;;;;;;;32.47;8.35;;;6.90;51.80;;;;;;5056009;28;20483;-74
2021/12/20 10:25:23;;;;;;;33.30;7.60;;;7.00;47.20;;;;;;5062405;28;20960;-72
2021/12/20 10:27:49;;;;;;;42.60;8.07;;;7.20;46.20;;;;;;5071904;28;20514;-72
2021/12/20 10:30:36;;;;;;;29.95;7.90;;;7.20;45.60;;;;;;5059405;28;20489;-73
2021/12/20 10:33:04;;;;;;;36.42;7.97;;;7.00;46.00;;;;;;5074562;28;20478;-73
2021/12/20 10:35:39;;;;;;;33.22;7.88;;;7.20;45.50;;;;;;5054001;28;20814;-73
2021/12/20 10:38:25;;;;;;;38.83;8.10;;;7.20;44.50;;;;;;5066180;28;20482;-72
2021/12/20 10:40:55;;;;;;;31.80;6.55;;;7.20;44.50;;;;;;5068585;28;20413;-73
2021/12/20 10:43:23;;;;;;;31.90;7.90;;;7.10;43.40;;;;;;5077516;28;20400;-71
2021/12/20 10:45:52;;;;;;;30.73;7.68;;;7.10;43.40;;;;;;5089695;28;20377;-72
2021/12/20 10:48:18;;;;;;;37.30;7.20;;;7.10;43.00;;;;;;5062740;28;20397;-72
2021/12/20 10:50:44;;;;;;;31.10;6.80;;;7.20;43.10;;;;;;5079060;28;20392;-71
2021/12/20 10:53:26;;;;;;;29.83;7.22;;;7.20;43.30;;;;;;5071372;28;20417;-72
2021/12/20 10:55:54;;;;;;;23.35;6.53;;;7.10;43.40;;;;;;5077616;28;20405;-71
2021/12/20 10:58:31;;;;;;;34.17;9.13;;;7.50;41.50;;;;;;5055372;28;20762;-72
2021/12/20 11:01:05;;;;;;;31.15;6.10;;;7.60;39.90;;;;;;5053126;28;20437;-71
2021/12/20 11:03:36;;;;;;;35.42;6.90;;;7.70;38.60;;;;;;5069735;28;20395;-74
2021/12/20 11:11:30;;;;;;;28.77;7.18;;;7.50;39.70;;;;;;5055274;28;20420;-74
2021/12/20 11:13:58;;;;;;;36.20;7.18;;;7.30;39.60;;;;;;5074499;28;20411;-75
2021/12/20 11:16:49;;;;;;;25.85;6.50;;;7.40;39.80;;;;;;5067469;28;20923;-74
2021/12/20 11:19:22;;;;;;;27.83;6.60;;;7.40;38.80;;;;;;5084190;28;20471;-74
2021/12/20 11:21:52;;;;;;;29.80;7.32;;;7.50;38.00;;;;;;5067776;28;20423;-72
2021/12/20 11:24:25;;;;;;;30.00;6.60;;;7.30;39.40;;;;;;5051611;28;20438;-74
2021/12/20 11:26:52;;;;;;;32.20;6.80;;;7.40;39.20;;;;;;5053841;28;20518;-73
2021/12/20 11:29:19;;;;;;;31.05;7.22;;;7.60;37.00;;;;;;5053805;28;20886;-73
2021/12/20 11:31:45;;;;;;;32.33;6.68;;;7.50;38.10;;;;;;5065267;28;20399;-73
2021/12/20 11:34:11;;;;;;;22.15;5.03;;;7.70;36.20;;;;;;5069633;28;20390;-74
2021/12/20 11:36:37;;;;;;;16.60;5.05;;;7.60;32.50;;;;;;5054757;28;20731;-73
2021/12/20 11:39:07;;;;;;;17.83;4.10;;;7.60;32.70;;;;;;5068437;28;20469;-74
2021/12/20 11:41:33;;;;;;;16.10;4.65;;;7.80;32.00;;;;;;5053558;28;20381;-71
2021/12/20 11:44:00;;;;;;;22.48;5.05;;;7.80;32.50;;;;;;5058648;28;20403;-74
2021/12/20 11:46:34;;;;;;;22.17;5.10;;;7.80;32.70;;;;;;5055366;28;20404;-73
2021/12/20 11:49:00;;;;;;;25.75;5.22;;;7.70;31.50;;;;;;5060466;28;20410;-72
2021/12/20 11:51:26;;;;;;;23.70;5.07;;;7.70;32.10;;;;;;5073393;28;20498;-73
2021/12/20 11:53:51;;;;;;;25.97;5.60;;;7.70;31.30;;;;;;5069125;28;20388;-72
2021/12/20 11:56:26;;;;;;;21.83;5.53;;;7.60;32.10;;;;;;5073460;28;20384;-73
2021/12/20 11:58:52;;;;;;;14.50;3.65;;;7.60;31.60;;;;;;5072056;28;20402;-71
2021/12/20 12:01:19;;;;;;;12.97;3.63;;;7.70;26.60;;;;;;5053647;28;20875;-72
2021/12/20 12:03:54;;;;;;;15.40;3.80;;;7.80;26.60;;;;;;5052935;28;20400;-72
2021/12/20 12:06:26;;;;;;;10.45;2.60;;;7.90;23.20;;;;;;5052593;28;20412;-74
2021/12/20 12:08:52;;;;;;;8.20;2.58;;;7.90;22.00;;;;;;5063421;28;20511;-70
2021/12/20 12:11:19;;;;;;;7.53;1.98;;;7.80;21.40;;;;;;5071573;28;20522;-74
2021/12/20 12:13:49;;;;;;;12.13;3.10;;;7.80;20.40;;;;;;5073548;28;20757;-75
2021/12/20 12:16:31;;;;;;;6.55;2.40;;;7.80;20.70;;;;;;5076888;28;20838;-75
2021/12/20 12:19:01;;;;;;;10.65;2.60;;;7.90;20.20;;;;;;5079611;28;20432;-74
2021/12/20 12:21:33;;;;;;;10.10;3.50;;;7.70;20.60;;;;;;5064199;28;20463;-74
2021/12/20 12:24:00;;;;;;;6.72;2.10;;;7.40;21.90;;;;;;5051969;28;20396;-73
2021/12/20 12:26:38;;;;;;;9.48;2.50;;;7.40;22.00;;;;;;5051959;28;21007;-75
2021/12/20 12:29:06;;;;;;;9.90;2.03;;;7.80;20.80;;;;;;5052573;28;20422;-75
2021/12/20 12:31:52;;;;;;;8.70;2.08;;;7.70;20.80;;;;;;5058020;28;20420;-74
2021/12/20 12:34:18;;;;;;;7.50;2.20;;;7.80;20.50;;;;;;5072867;28;20470;-74
2021/12/20 12:36:45;;;;;;;6.55;2.30;;;7.50;21.80;;;;;;5071344;28;20484;-74
2021/12/20 12:39:31;;;;;;;11.13;2.43;;;7.60;21.50;;;;;;5055125;28;20417;-74
2021/12/20 12:42:01;;;;;;;10.48;2.65;;;7.60;20.70;;;;;;5051620;28;20481;-74
2021/12/20 12:44:29;;;;;;;5.15;1.70;;;7.60;21.50;;;;;;5050959;28;20797;-74
2021/12/20 12:47:07;;;;;;;9.35;2.70;;;7.70;21.10;;;;;;5059186;28;20409;-74
2021/12/20 12:49:36;;;;;;;9.75;2.35;;;7.60;20.60;;;;;;5061556;28;20427;-73
2021/12/20 12:52:23;;;;;;;4.80;1.90;;;7.60;21.00;;;;;;5053214;28;20404;-72
2021/12/20 12:54:57;;;;;;;8.45;2.40;;;7.50;19.90;;;;;;5060009;28;20871;-73
2021/12/20 12:57:22;;;;;;;6.60;1.80;;;7.60;19.50;;;;;;5072465;28;20383;-74
2021/12/20 12:59:48;;;;;;;5.33;1.60;;;7.50;19.00;;;;;;5071361;28;20402;-73
2021/12/20 13:02:19;;;;;;;4.70;1.73;;;7.50;18.90;;;;;;5070418;28;20399;-75